Time;durP1;ratioP1;P1;durP2;ratioP2;P2;SDS_P1;SDS_P2;PMS_P1;PMS_P2;Temp;Humidity;BMP_temperature;BMP_pressure;BME280_temperature;BME280_humidity;BME280_pressure;Samples;Min_cycle;Max_cycle;Signal;HPM_P1;HPM_P2
2023/01/31 02:14:50;;;;;;;1.90;1.38;;;5.90;44.00;;;;;;4934010;29;20267;-73
2023/01/31 02:17:18;;;;;;;1.80;1.20;;;6.00;44.10;;;;;;4935821;29;20702;-73
2023/01/31 02:19:49;;;;;;;2.10;1.45;;;5.70;44.70;;;;;;4935829;29;20176;-73
2023/01/31 02:22:59;;;;;;;1.77;1.20;;;6.20;43.30;;;;;;4935958;29;20538;-74
2023/01/31 02:25:42;;;;;;;2.03;1.40;;;5.60;44.80;;;;;;4917008;29;20204;-73
2023/01/31 02:28:40;;;;;;;1.80;1.10;;;5.50;45.70;;;;;;4916852;29;20201;-73
2023/01/31 02:31:24;;;;;;;1.80;1.20;;;5.00;48.50;;;;;;4916693;29;20196;-73
2023/01/31 02:34:36;;;;;;;1.92;1.27;;;4.90;48.30;;;;;;4916336;29;20180;-74
2023/01/31 02:37:37;;;;;;;2.40;1.80;;;5.10;47.90;;;;;;4917505;29;20246;-73
2023/01/31 02:40:08;;;;;;;1.80;1.17;;;7.10;51.30;;;;;;4930655;28;20630;-73
2023/01/31 02:42:42;;;;;;;1.92;1.35;;;5.40;46.50;;;;;;4934672;29;20730;-76
2023/01/31 02:45:27;;;;;;;1.80;1.10;;;5.40;45.60;;;;;;4935209;29;20660;-74
2023/01/31 02:48:15;;;;;;;1.80;1.10;;;5.40;46.10;;;;;;4916402;29;20176;-73
2023/01/31 02:50:49;;;;;;;1.80;1.20;;;5.90;44.50;;;;;;4934356;29;20212;-73
2023/01/31 02:53:20;;;;;;;1.80;1.20;;;6.10;42.90;;;;;;4934881;29;20184;-73
2023/01/31 02:56:16;;;;;;;2.00;1.30;;;5.70;44.10;;;;;;4934827;29;20255;-73
2023/01/31 02:58:48;;;;;;;1.90;1.23;;;5.70;43.80;;;;;;4934906;29;20231;-73
2023/01/31 03:01:19;;;;;;;1.90;1.20;;;5.80;44.70;;;;;;4932398;29;20255;-73
2023/01/31 03:03:45;;;;;;;1.80;1.20;;;5.80;43.40;;;;;;4934852;29;20180;-73
2023/01/31 03:06:23;;;;;;;1.90;1.30;;;6.00;42.70;;;;;;4933707;29;20218;-77
2023/01/31 03:08:54;;;;;;;1.80;1.10;;;6.10;42.30;;;;;;4933379;29;20427;-73
2023/01/31 03:11:28;;;;;;;1.88;1.25;;;6.10;41.80;;;;;;4933890;29;20487;-73
2023/01/31 03:14:09;;;;;;;1.80;1.13;;;5.90;42.50;;;;;;4934583;29;20229;-73
2023/01/31 03:20:04;;;;;;;2.10;1.45;;;5.80;43.00;;;;;;4932843;29;20242;-73
2023/01/31 03:22:45;;;;;;;1.80;1.20;;;5.90;42.30;;;;;;4923001;29;20603;-75
2023/01/31 03:25:14;;;;;;;2.15;1.50;;;5.90;42.10;;;;;;4931196;29;20208;-73
2023/01/31 03:27:43;;;;;;;1.80;1.10;;;6.00;41.80;;;;;;4917598;29;20219;-73
2023/01/31 03:30:14;;;;;;;2.00;1.45;;;5.70;42.50;;;;;;4932241;29;20458;-73
2023/01/31 03:32:56;;;;;;;3.83;2.10;;;5.70;43.00;;;;;;4932786;29;20214;-73
2023/01/31 03:35:26;;;;;;;1.80;1.10;;;5.80;42.40;;;;;;4933346;29;20219;-73
2023/01/31 03:38:03;;;;;;;1.70;1.10;;;5.80;43.00;;;;;;4961174;23;20214;-73
2023/01/31 03:40:35;;;;;;;2.00;1.30;;;6.10;41.80;;;;;;4935502;28;20250;-72
2023/01/31 03:43:27;;;;;;;1.80;1.10;;;6.00;42.30;;;;;;4961647;28;20225;-73
2023/01/31 03:46:08;;;;;;;1.70;1.10;;;5.70;43.40;;;;;;4946622;29;20590;-73
2023/01/31 03:48:38;;;;;;;1.80;1.10;;;5.90;42.60;;;;;;4953284;28;20199;-72
2023/01/31 03:51:09;;;;;;;1.80;1.20;;;6.00;42.50;;;;;;4951013;29;20810;-73
2023/01/31 03:53:39;;;;;;;1.70;1.10;;;6.20;41.90;;;;;;4952525;29;20599;-73
2023/01/31 03:56:26;;;;;;;1.70;1.10;;;6.00;42.00;;;;;;4951688;28;20672;-73
2023/01/31 03:58:56;;;;;;;1.77;1.13;;;6.00;42.00;;;;;;4946439;28;20206;-73
2023/01/31 04:01:27;;;;;;;1.70;1.10;;;5.80;42.60;;;;;;4937719;29;20271;-73
2023/01/31 04:04:06;;;;;;;2.42;1.30;;;5.90;42.80;;;;;;4952529;28;20670;-73
2023/01/31 04:06:32;;;;;;;1.80;1.17;;;6.20;41.80;;;;;;4936666;28;20198;-73
2023/01/31 04:08:57;;;;;;;1.70;1.10;;;5.90;42.60;;;;;;4950996;28;20219;-73
2023/01/31 04:11:25;;;;;;;1.80;1.17;;;5.90;42.30;;;;;;4950785;29;20195;-73
2023/01/31 04:13:51;;;;;;;1.83;1.10;;;5.90;42.50;;;;;;4950487;28;20183;-73
2023/01/31 04:16:16;;;;;;;1.80;1.10;;;6.10;41.90;;;;;;4952558;29;20230;-74
2023/01/31 04:18:42;;;;;;;1.80;1.20;;;6.20;41.90;;;;;;4950142;28;20710;-73
2023/01/31 04:21:08;;;;;;;1.80;1.10;;;6.50;41.00;;;;;;4951646;29;20459;-73
2023/01/31 04:23:34;;;;;;;1.80;1.17;;;6.50;40.60;;;;;;4953229;28;20179;-73
2023/01/31 04:26:00;;;;;;;1.77;1.00;;;6.60;40.80;;;;;;4960640;28;20195;-73
2023/01/31 04:28:26;;;;;;;2.47;1.77;;;6.80;40.90;;;;;;4957037;28;20458;-73
2023/01/31 04:30:55;;;;;;;1.80;1.10;;;6.70;40.90;;;;;;4973859;28;20552;-73
2023/01/31 04:33:22;;;;;;;2.20;1.30;;;6.80;40.20;;;;;;4960726;28;20278;-73
2023/01/31 04:35:49;;;;;;;1.75;1.08;;;7.10;39.40;;;;;;4956727;29;20199;-73
2023/01/31 04:38:14;;;;;;;1.70;1.10;;;7.10;39.30;;;;;;4957952;28;20333;-72
2023/01/31 04:40:40;;;;;;;1.70;1.10;;;7.10;39.30;;;;;;4960434;29;20215;-73
2023/01/31 04:43:06;;;;;;;1.80;1.17;;;7.00;39.10;;;;;;4954753;29;20230;-73
2023/01/31 04:45:31;;;;;;;1.90;1.30;;;7.00;39.20;;;;;;4955896;29;20210;-73
2023/01/31 04:47:57;;;;;;;1.80;1.10;;;6.90;38.90;;;;;;4956530;28;20778;-73
2023/01/31 04:50:22;;;;;;;2.80;1.67;;;6.80;38.90;;;;;;4956418;29;20833;-73
2023/01/31 04:52:49;;;;;;;1.83;1.30;;;6.60;39.50;;;;;;4956207;29;20179;-72
2023/01/31 04:55:15;;;;;;;1.70;1.10;;;6.30;40.20;;;;;;4954100;29;20879;-73
2023/01/31 04:57:41;;;;;;;1.80;1.10;;;6.40;40.10;;;;;;4956161;28;20218;-73
2023/01/31 05:00:07;;;;;;;1.80;1.20;;;6.30;40.00;;;;;;4956277;29;20175;-73
2023/01/31 05:02:33;;;;;;;2.30;1.50;;;6.50;39.80;;;;;;4955997;29;20171;-72
2023/01/31 05:04:59;;;;;;;2.00;1.33;;;6.50;39.40;;;;;;4955204;29;20669;-73
2023/01/31 05:07:24;;;;;;;1.80;1.10;;;6.40;39.70;;;;;;4955517;28;20187;-73
2023/01/31 05:09:50;;;;;;;2.07;1.20;;;6.30;41.10;;;;;;4955833;29;20802;-73
2023/01/31 05:12:15;;;;;;;1.80;1.10;;;6.30;40.00;;;;;;4955817;29;20198;-73
2023/01/31 05:14:41;;;;;;;2.80;2.13;;;6.20;40.60;;;;;;4937602;29;20188;-73
2023/01/31 05:17:06;;;;;;;2.30;1.30;;;6.30;40.50;;;;;;4955175;29;20692;-73
2023/01/31 05:19:32;;;;;;;1.90;1.23;;;6.10;41.00;;;;;;4955888;28;20733;-73
2023/01/31 05:21:58;;;;;;;1.70;1.10;;;6.20;41.10;;;;;;4955930;29;20365;-73
2023/01/31 05:24:26;;;;;;;1.70;1.10;;;6.40;40.30;;;;;;4955724;29;20168;-73
2023/01/31 05:26:55;;;;;;;1.80;1.17;;;6.30;40.50;;;;;;4953910;29;20191;-73
2023/01/31 05:29:21;;;;;;;1.80;1.20;;;6.40;40.40;;;;;;4955346;28;20203;-73
2023/01/31 05:31:50;;;;;;;1.70;1.00;;;6.30;40.60;;;;;;4955624;29;20186;-73
2023/01/31 05:34:16;;;;;;;1.75;1.10;;;6.60;40.40;;;;;;4954573;28;20175;-73
2023/01/31 05:36:42;;;;;;;1.80;1.20;;;6.80;39.30;;;;;;4954018;29;20215;-73
2023/01/31 05:39:08;;;;;;;1.77;1.17;;;7.00;38.20;;;;;;4954483;28;20222;-73
2023/01/31 05:41:33;;;;;;;1.70;1.10;;;7.20;37.70;;;;;;4955628;29;20175;-73
2023/01/31 05:43:59;;;;;;;1.80;1.17;;;7.30;37.50;;;;;;4955233;29;20198;-73
2023/01/31 05:46:24;;;;;;;1.70;1.13;;;7.50;37.70;;;;;;4954676;29;20242;-73
2023/01/31 05:48:50;;;;;;;1.70;1.10;;;6.50;39.80;;;;;;4954167;28;20211;-73
2023/01/31 05:51:16;;;;;;;1.70;1.10;;;6.70;39.50;;;;;;4954239;29;20646;-73
2023/01/31 05:53:41;;;;;;;1.70;1.20;;;6.20;40.40;;;;;;4954060;29;20171;-73
2023/01/31 05:56:07;;;;;;;1.80;1.20;;;6.60;39.60;;;;;;4954509;29;20298;-73
2023/01/31 05:58:32;;;;;;;1.80;1.20;;;6.60;39.30;;;;;;4953245;28;20203;-72
2023/01/31 06:00:58;;;;;;;2.00;1.63;;;6.50;39.50;;;;;;4953689;29;20250;-73
2023/01/31 06:03:24;;;;;;;2.00;1.30;;;6.60;39.90;;;;;;4955120;29;20172;-74
2023/01/31 06:05:49;;;;;;;2.40;1.37;;;6.90;38.50;;;;;;4955095;29;20183;-73
2023/01/31 06:08:16;;;;;;;1.70;1.17;;;6.80;38.20;;;;;;4955307;29;20246;-73
2023/01/31 06:10:42;;;;;;;1.70;1.10;;;6.50;39.80;;;;;;4937733;29;20537;-74
2023/01/31 06:13:07;;;;;;;1.70;1.13;;;6.70;39.70;;;;;;4952833;29;20238;-74
2023/01/31 06:15:33;;;;;;;1.70;1.10;;;7.20;38.60;;;;;;4954133;29;20213;-69
2023/01/31 06:17:59;;;;;;;1.83;1.23;;;7.10;37.80;;;;;;4955245;28;20195;-69
2023/01/31 06:20:25;;;;;;;1.70;1.10;;;7.00;38.00;;;;;;4955057;29;20172;-69
2023/01/31 06:22:51;;;;;;;1.75;1.15;;;7.20;37.10;;;;;;4954633;29;20527;-70
2023/01/31 06:25:16;;;;;;;1.70;1.10;;;7.50;36.00;;;;;;4955018;29;20179;-69
2023/01/31 06:27:42;;;;;;;1.83;1.23;;;6.80;37.90;;;;;;4954664;28;20210;-70
2023/01/31 06:30:09;;;;;;;1.60;1.10;;;6.80;39.10;;;;;;4954643;29;20183;-70
2023/01/31 06:32:35;;;;;;;1.70;1.10;;;6.60;38.20;;;;;;4952297;29;20859;-71
2023/01/31 06:35:02;;;;;;;1.70;1.13;;;6.80;38.00;;;;;;4951928;29;20191;-72
2023/01/31 06:37:27;;;;;;;1.80;1.15;;;6.80;37.70;;;;;;4948480;28;20678;-68
2023/01/31 06:39:53;;;;;;;1.70;1.20;;;6.80;37.60;;;;;;4958652;28;20258;-68
2023/01/31 06:42:19;;;;;;;1.80;1.10;;;6.80;37.90;;;;;;4950395;28;20183;-71
2023/01/31 06:44:44;;;;;;;1.70;1.13;;;7.20;37.10;;;;;;4953285;29;20191;-71
2023/01/31 06:47:11;;;;;;;1.67;1.00;;;7.50;36.00;;;;;;4954170;28;20210;-70
2023/01/31 06:49:37;;;;;;;1.63;1.10;;;7.30;36.20;;;;;;4953432;28;20587;-71
2023/01/31 06:52:03;;;;;;;1.80;1.20;;;7.40;36.30;;;;;;4952986;29;20698;-70
2023/01/31 06:54:29;;;;;;;1.70;1.00;;;7.30;36.10;;;;;;4951173;29;20270;-70
2023/01/31 06:56:55;;;;;;;1.70;1.10;;;7.30;36.20;;;;;;4953748;29;20465;-70
2023/01/31 06:59:20;;;;;;;1.70;1.10;;;7.20;35.90;;;;;;4953995;28;20983;-69
2023/01/31 07:01:46;;;;;;;1.70;1.10;;;6.60;36.20;;;;;;4953897;29;20175;-69
2023/01/31 07:04:12;;;;;;;1.80;1.20;;;7.20;36.30;;;;;;4951258;28;20214;-73
2023/01/31 07:06:37;;;;;;;1.70;1.10;;;7.10;36.10;;;;;;4953304;29;20183;-69
2023/01/31 07:09:03;;;;;;;2.67;1.60;;;7.10;36.40;;;;;;4953559;28;20203;-70
2023/01/31 07:11:28;;;;;;;1.70;1.10;;;7.00;36.40;;;;;;4953958;29;20182;-69
2023/01/31 07:13:54;;;;;;;2.30;1.30;;;6.90;36.60;;;;;;4950849;29;20183;-70
2023/01/31 07:16:21;;;;;;;1.80;1.20;;;6.80;36.50;;;;;;4953034;29;20234;-69
2023/01/31 07:18:47;;;;;;;1.70;1.10;;;6.90;35.90;;;;;;4952573;28;20199;-70
2023/01/31 07:21:12;;;;;;;1.70;1.07;;;6.50;36.80;;;;;;4953651;29;20654;-68
2023/01/31 07:23:38;;;;;;;1.70;1.10;;;6.70;36.50;;;;;;4953426;29;20171;-69
2023/01/31 07:26:04;;;;;;;1.70;1.10;;;6.40;37.20;;;;;;4952435;28;20184;-69
2023/01/31 07:28:30;;;;;;;1.80;1.10;;;6.70;36.50;;;;;;4951626;28;20210;-69
2023/01/31 07:31:02;;;;;;;1.73;1.10;;;6.20;37.50;;;;;;4961185;29;20658;-68
2023/01/31 07:33:29;;;;;;;1.70;1.10;;;6.30;37.50;;;;;;4953329;29;20191;-70
2023/01/31 07:35:54;;;;;;;1.70;1.10;;;6.20;37.60;;;;;;4953655;29;20563;-70
2023/01/31 07:38:20;;;;;;;1.77;1.10;;;6.40;37.40;;;;;;4952198;28;20213;-70
2023/01/31 07:40:45;;;;;;;1.70;1.10;;;6.40;37.00;;;;;;4951403;29;20211;-68
2023/01/31 07:43:11;;;;;;;1.70;1.10;;;6.30;37.60;;;;;;4953004;29;20175;-68
2023/01/31 07:45:38;;;;;;;1.97;1.30;;;6.50;37.10;;;;;;4953424;29;20203;-69
2023/01/31 07:48:05;;;;;;;1.77;1.13;;;6.80;36.00;;;;;;4953068;28;20237;-70
2023/01/31 07:50:31;;;;;;;1.70;1.00;;;6.20;37.20;;;;;;4950473;29;20179;-73
2023/01/31 07:52:57;;;;;;;1.80;1.10;;;6.10;37.60;;;;;;4951867;29;20969;-73
2023/01/31 07:55:23;;;;;;;1.70;1.10;;;6.60;36.30;;;;;;4953261;28;20195;-68
2023/01/31 07:57:49;;;;;;;1.70;1.10;;;6.70;36.00;;;;;;4954141;28;20250;-69
2023/01/31 08:05:45;;;;;;;1.70;1.10;;;6.60;36.40;;;;;;4955251;29;20206;-70
2023/01/31 08:08:12;;;;;;;1.70;1.10;;;6.50;36.30;;;;;;4956345;28;20211;-69
2023/01/31 08:10:38;;;;;;;1.70;1.13;;;6.00;38.00;;;;;;4957239;28;20577;-70
2023/01/31 08:13:05;;;;;;;1.70;1.10;;;6.40;36.60;;;;;;4956550;28;20639;-69
2023/01/31 08:15:31;;;;;;;1.67;1.00;;;6.20;37.90;;;;;;4957028;28;20203;-69
2023/01/31 08:17:57;;;;;;;1.80;1.20;;;5.60;39.20;;;;;;4952974;28;20582;-70
2023/01/31 08:20:22;;;;;;;1.70;1.10;;;5.70;38.80;;;;;;4956914;29;20179;-69
2023/01/31 08:22:48;;;;;;;1.70;1.10;;;6.00;38.00;;;;;;4956584;29;20190;-69
2023/01/31 08:25:13;;;;;;;1.80;1.23;;;6.00;37.80;;;;;;4956646;29;20222;-69
2023/01/31 08:27:39;;;;;;;1.70;1.07;;;5.90;38.40;;;;;;4954529;28;20215;-69
2023/01/31 08:30:06;;;;;;;1.70;1.00;;;6.20;37.30;;;;;;4955447;29;20179;-69
2023/01/31 08:32:31;;;;;;;2.20;1.50;;;5.70;38.70;;;;;;4956490;28;20673;-69
2023/01/31 08:34:57;;;;;;;1.70;1.10;;;5.90;38.30;;;;;;4955599;29;20203;-69
2023/01/31 08:37:22;;;;;;;2.20;1.40;;;6.20;37.70;;;;;;4955028;28;20265;-69
2023/01/31 08:39:48;;;;;;;1.70;1.07;;;6.20;37.90;;;;;;4954796;29;20201;-68
2023/01/31 08:42:14;;;;;;;1.83;1.20;;;5.90;38.40;;;;;;4956335;29;20258;-69
2023/01/31 08:44:39;;;;;;;1.70;1.10;;;5.90;39.40;;;;;;4956031;29;20190;-68
2023/01/31 08:47:05;;;;;;;1.90;1.20;;;6.30;38.20;;;;;;4956344;29;20183;-69
2023/01/31 08:49:32;;;;;;;1.80;1.10;;;6.70;36.80;;;;;;4953938;28;20211;-70
2023/01/31 08:51:58;;;;;;;1.70;1.10;;;6.30;37.70;;;;;;4954078;29;20238;-69
2023/01/31 08:54:23;;;;;;;1.70;1.10;;;6.10;38.70;;;;;;4954745;29;20195;-69
2023/01/31 08:56:49;;;;;;;1.70;1.10;;;6.00;38.80;;;;;;4940319;29;20204;-68
2023/01/31 08:59:14;;;;;;;1.70;1.10;;;6.30;38.40;;;;;;4957721;28;20274;-72
2023/01/31 09:01:42;;;;;;;1.70;1.10;;;6.70;37.40;;;;;;4956160;29;20181;-69
2023/01/31 09:04:08;;;;;;;1.70;1.10;;;6.90;36.60;;;;;;4955955;28;20222;-69
2023/01/31 09:06:34;;;;;;;1.70;1.10;;;7.00;36.70;;;;;;4954854;28;20231;-69
2023/01/31 09:08:59;;;;;;;1.70;1.10;;;6.60;37.30;;;;;;4953900;28;20211;-69
2023/01/31 09:11:29;;;;;;;1.70;1.10;;;6.60;37.20;;;;;;4952637;28;20202;-70
2023/01/31 09:13:54;;;;;;;1.70;1.10;;;7.10;36.00;;;;;;4955102;28;20171;-70
2023/01/31 09:16:20;;;;;;;1.60;1.00;;;7.20;35.50;;;;;;4956022;29;20215;-69
2023/01/31 09:18:46;;;;;;;1.70;1.07;;;7.00;36.50;;;;;;4955762;28;20209;-70
2023/01/31 09:21:18;;;;;;;2.83;1.65;;;7.10;36.40;;;;;;4951949;29;20629;-73
2023/01/31 09:23:44;;;;;;;1.70;1.10;;;7.10;35.00;;;;;;4955326;28;20176;-70
2023/01/31 09:26:11;;;;;;;1.80;1.20;;;6.80;35.70;;;;;;4955772;29;20526;-69
2023/01/31 09:28:36;;;;;;;8.52;3.38;;;6.80;36.20;;;;;;4955331;28;20206;-70
2023/01/31 09:31:11;;;;;;;2.90;1.50;;;7.00;35.60;;;;;;4953103;29;20199;-69
2023/01/31 09:33:36;;;;;;;1.73;1.10;;;6.70;35.40;;;;;;4954585;28;20213;-72
2023/01/31 09:36:05;;;;;;;1.70;1.10;;;6.60;35.80;;;;;;4954531;29;20247;-72
2023/01/31 09:38:31;;;;;;;1.95;1.20;;;6.90;35.60;;;;;;4955106;28;20277;-72
2023/01/31 09:41:00;;;;;;;1.80;1.23;;;7.50;33.90;;;;;;4954134;29;20191;-70
2023/01/31 09:43:32;;;;;;;1.70;1.10;;;6.90;34.80;;;;;;4953329;29;20702;-69
2023/01/31 09:46:01;;;;;;;1.73;1.10;;;6.60;36.90;;;;;;4955158;29;20602;-70
2023/01/31 09:48:36;;;;;;;1.80;1.20;;;7.50;33.90;;;;;;4952702;28;20199;-70
2023/01/31 09:51:04;;;;;;;1.80;1.20;;;7.50;33.70;;;;;;4955007;29;20641;-70
2023/01/31 09:53:33;;;;;;;1.73;1.10;;;8.00;31.70;;;;;;4953398;29;20652;-70
2023/01/31 09:56:26;;;;;;;1.70;1.10;;;8.00;32.40;;;;;;4954815;29;20213;-71
2023/01/31 09:59:14;;;;;;;1.70;1.10;;;8.20;31.60;;;;;;4953175;28;20594;-70
2023/01/31 10:02:05;;;;;;;1.70;1.10;;;8.50;31.30;;;;;;4947429;29;20170;-70
2023/01/31 10:04:57;;;;;;;1.70;1.10;;;8.40;30.30;;;;;;4953620;29;20228;-71
2023/01/31 10:07:29;;;;;;;1.70;1.20;;;7.60;32.80;;;;;;4954417;28;20194;-70
2023/01/31 10:10:10;;;;;;;1.80;1.20;;;8.20;31.80;;;;;;4949759;28;20328;-69
2023/01/31 10:12:45;;;;;;;1.80;1.20;;;8.00;31.60;;;;;;5017576;23;20234;-71
2023/01/31 10:15:18;;;;;;;1.80;1.20;;;8.20;32.20;;;;;;4936269;29;20553;-68
2023/01/31 10:17:49;;;;;;;1.70;1.10;;;7.90;31.50;;;;;;4940899;29;20184;-69
2023/01/31 10:20:30;;;;;;;1.83;1.25;;;7.80;31.40;;;;;;4934337;29;20383;-69
2023/01/31 10:23:21;;;;;;;1.80;1.20;;;8.00;32.00;;;;;;4931270;29;20211;-68
2023/01/31 10:26:02;;;;;;;1.90;1.25;;;8.40;31.90;;;;;;4927862;29;20199;-70
2023/01/31 10:29:15;;;;;;;2.00;1.20;;;8.50;30.60;;;;;;4934958;29;20179;-68
2023/01/31 10:31:48;;;;;;;1.80;1.20;;;8.40;30.20;;;;;;4898664;29;20218;-69
2023/01/31 10:34:16;;;;;;;1.70;1.10;;;8.30;30.00;;;;;;4898747;29;20193;-68
2023/01/31 10:36:52;;;;;;;1.80;1.20;;;8.30;30.30;;;;;;4895033;29;20209;-70
2023/01/31 10:39:39;;;;;;;1.80;1.20;;;7.90;30.20;;;;;;4890755;29;20280;-68
2023/01/31 10:42:16;;;;;;;1.70;1.10;;;7.30;32.00;;;;;;4900858;29;20293;-68
2023/01/31 10:45:02;;;;;;;1.83;1.20;;;7.70;31.40;;;;;;4893854;29;20192;-69
2023/01/31 10:47:46;;;;;;;1.70;1.10;;;7.90;31.10;;;;;;4895908;29;20196;-70
2023/01/31 10:50:28;;;;;;;1.80;1.20;;;7.90;31.30;;;;;;4892302;29;20285;-70
2023/01/31 10:53:32;;;;;;;1.80;1.20;;;8.30;30.50;;;;;;4913283;29;20204;-68
2023/01/31 10:56:21;;;;;;;1.80;1.20;;;7.90;31.10;;;;;;4858523;29;20231;-68
2023/01/31 10:58:47;;;;;;;2.20;1.58;;;7.70;31.50;;;;;;4849456;29;20195;-69
2023/01/31 11:01:14;;;;;;;1.70;1.07;;;8.60;29.80;;;;;;4856688;29;20304;-68
2023/01/31 11:03:48;;;;;;;1.80;1.20;;;9.30;28.70;;;;;;4869094;29;20465;-68
2023/01/31 11:06:14;;;;;;;1.80;1.13;;;9.70;28.10;;;;;;4861210;29;20680;-68
2023/01/31 11:08:54;;;;;;;2.13;1.40;;;9.90;28.80;;;;;;4875706;29;20731;-68
2023/01/31 11:11:22;;;;;;;1.98;1.30;;;9.70;27.80;;;;;;4873773;29;20264;-67
2023/01/31 11:13:59;;;;;;;1.70;1.10;;;8.80;29.70;;;;;;4879045;29;20205;-68
2023/01/31 11:16:29;;;;;;;1.70;1.10;;;8.10;30.30;;;;;;4877751;29;20223;-69
2023/01/31 11:18:57;;;;;;;2.85;1.58;;;8.00;31.60;;;;;;4880565;29;20202;-68
2023/01/31 11:21:26;;;;;;;2.33;1.55;;;8.70;30.20;;;;;;4875753;29;20197;-67
2023/01/31 11:23:57;;;;;;;1.70;1.10;;;8.20;30.30;;;;;;4878652;29;20188;-67
2023/01/31 11:26:35;;;;;;;1.70;1.20;;;8.00;31.30;;;;;;4894223;29;20193;-68
2023/01/31 11:29:05;;;;;;;1.80;1.20;;;8.60;30.20;;;;;;4875743;29;20199;-71
2023/01/31 11:31:35;;;;;;;1.80;1.13;;;9.40;28.80;;;;;;4888140;29;20717;-68
2023/01/31 11:34:03;;;;;;;1.83;1.20;;;9.50;29.40;;;;;;4926844;29;20199;-68
2023/01/31 11:36:39;;;;;;;1.85;1.23;;;9.10;30.00;;;;;;4931648;29;20219;-69
2023/01/31 11:39:30;;;;;;;1.70;1.00;;;8.90;29.80;;;;;;4930767;29;20235;-70
2023/01/31 11:42:03;;;;;;;1.70;1.10;;;8.00;31.40;;;;;;4926441;29;20244;-69
2023/01/31 11:44:29;;;;;;;1.70;1.10;;;8.20;31.00;;;;;;4932136;29;20646;-68
2023/01/31 11:46:58;;;;;;;1.80;1.20;;;8.80;30.90;;;;;;4933946;29;20200;-68
2023/01/31 11:49:34;;;;;;;1.70;1.10;;;8.80;30.50;;;;;;4934192;29;20295;-67
2023/01/31 11:52:13;;;;;;;1.85;1.20;;;9.10;29.70;;;;;;4933019;29;20266;-70
2023/01/31 11:54:42;;;;;;;1.93;1.30;;;8.20;29.90;;;;;;4933307;29;20187;-69
2023/01/31 11:57:27;;;;;;;1.93;1.20;;;8.40;30.60;;;;;;4933132;29;20472;-69
2023/01/31 11:59:55;;;;;;;2.00;1.20;;;10.00;27.50;;;;;;4928035;29;20462;-68
2023/01/31 12:02:39;;;;;;;1.90;1.10;;;10.20;26.50;;;;;;4933393;29;20428;-68
2023/01/31 12:05:18;;;;;;;2.00;1.27;;;9.30;27.70;;;;;;4931957;29;20661;-66
2023/01/31 12:07:49;;;;;;;2.53;1.73;;;9.10;28.20;;;;;;4931285;29;20435;-67
2023/01/31 12:10:46;;;;;;;2.00;1.17;;;9.10;28.40;;;;;;4931014;29;20418;-71
2023/01/31 12:13:16;;;;;;;1.90;1.20;;;9.00;28.80;;;;;;4918174;29;20982;-71
2023/01/31 12:16:05;;;;;;;1.87;1.10;;;9.10;29.20;;;;;;4912140;29;20508;-68
2023/01/31 12:18:50;;;;;;;1.80;1.10;;;8.50;29.80;;;;;;4900678;29;20504;-69
2023/01/31 12:21:21;;;;;;;1.85;1.20;;;7.70;31.30;;;;;;4915531;29;20223;-68
2023/01/31 12:24:36;;;;;;;1.80;1.10;;;7.70;32.10;;;;;;4913856;29;20557;-68
2023/01/31 12:27:04;;;;;;;1.80;1.17;;;7.90;31.60;;;;;;4869686;29;20207;-68
2023/01/31 12:29:59;;;;;;;1.90;1.20;;;7.00;32.90;;;;;;4912331;29;20227;-71
2023/01/31 12:32:36;;;;;;;3.55;1.73;;;7.00;33.40;;;;;;4914859;29;20211;-69
2023/01/31 12:35:18;;;;;;;1.80;1.20;;;6.70;34.50;;;;;;4912271;29;20195;-67
2023/01/31 12:38:02;;;;;;;2.00;1.40;;;6.70;34.80;;;;;;4908711;29;20556;-68
2023/01/31 12:40:41;;;;;;;1.90;1.20;;;7.00;34.00;;;;;;4912171;29;20694;-68
2023/01/31 12:43:17;;;;;;;1.70;1.10;;;7.50;33.70;;;;;;4913385;29;20281;-68
2023/01/31 12:46:06;;;;;;;1.80;1.20;;;7.80;32.60;;;;;;4913085;29;20815;-67
2023/01/31 12:49:01;;;;;;;1.80;1.23;;;7.80;31.90;;;;;;4910521;29;20578;-69
2023/01/31 12:52:04;;;;;;;1.80;1.20;;;7.80;32.30;;;;;;4934004;29;20209;-68
2023/01/31 12:54:49;;;;;;;1.80;1.20;;;8.10;31.70;;;;;;4934911;29;20182;-69
2023/01/31 12:57:29;;;;;;;1.80;1.20;;;8.50;30.80;;;;;;4935449;29;20215;-68
2023/01/31 13:00:30;;;;;;;1.77;1.10;;;9.00;29.50;;;;;;4932467;29;20279;-69
2023/01/31 13:03:23;;;;;;;1.80;1.10;;;8.80;29.90;;;;;;4929990;29;20665;-70
2023/01/31 13:05:53;;;;;;;1.70;1.10;;;8.60;30.00;;;;;;4935063;29;20199;-67
2023/01/31 13:08:40;;;;;;;1.70;1.10;;;7.90;31.50;;;;;;4935254;29;20195;-67
2023/01/31 13:11:11;;;;;;;1.75;1.17;;;8.20;30.90;;;;;;4932509;29;20220;-69
2023/01/31 13:13:43;;;;;;;1.70;1.20;;;8.50;30.50;;;;;;4933266;29;20199;-73
2023/01/31 13:16:42;;;;;;;1.80;1.20;;;8.20;31.70;;;;;;4930274;29;20672;-68
2023/01/31 13:19:30;;;;;;;8.60;1.52;;;8.60;30.70;;;;;;4908190;29;20200;-69
2023/01/31 13:22:00;;;;;;;1.80;1.30;;;7.90;32.40;;;;;;4916648;29;20252;-68
2023/01/31 13:24:32;;;;;;;1.70;1.10;;;7.20;33.40;;;;;;4928056;29;20189;-70
2023/01/31 13:27:15;;;;;;;1.88;1.30;;;7.50;33.00;;;;;;4913843;29;20239;-67
2023/01/31 13:30:01;;;;;;;1.80;1.10;;;8.00;31.80;;;;;;4932438;29;20212;-67
2023/01/31 13:32:37;;;;;;;1.70;1.10;;;7.60;32.30;;;;;;4930612;29;20224;-67
2023/01/31 13:35:03;;;;;;;1.90;1.20;;;7.30;33.90;;;;;;4928758;29;20684;-67
2023/01/31 13:37:32;;;;;;;2.00;1.30;;;6.70;35.20;;;;;;4918124;29;20282;-69
2023/01/31 13:40:06;;;;;;;2.30;1.60;;;6.60;34.20;;;;;;4918300;29;20691;-69
2023/01/31 13:42:32;;;;;;;1.80;1.13;;;6.90;34.20;;;;;;4933434;29;20196;-69
2023/01/31 13:45:03;;;;;;;1.85;1.40;;;7.00;33.80;;;;;;4931497;29;20179;-69
2023/01/31 13:47:38;;;;;;;1.80;1.15;;;6.80;34.50;;;;;;4933260;29;20202;-69
2023/01/31 13:50:16;;;;;;;1.70;1.10;;;7.00;34.20;;;;;;4933854;29;20635;-69
2023/01/31 13:52:49;;;;;;;1.90;1.30;;;7.00;34.40;;;;;;4933708;29;20679;-70
2023/01/31 13:55:31;;;;;;;1.80;1.10;;;7.00;34.50;;;;;;4932477;29;20208;-70
2023/01/31 13:58:22;;;;;;;2.10;1.35;;;7.60;32.30;;;;;;4936085;29;20774;-70
2023/01/31 14:01:08;;;;;;;2.20;1.67;;;7.90;31.50;;;;;;4935903;29;20553;-69
2023/01/31 14:04:13;;;;;;;1.80;1.20;;;6.90;33.40;;;;;;4935757;29;20184;-69
2023/01/31 14:06:54;;;;;;;1.98;1.30;;;7.20;32.40;;;;;;4933237;29;20195;-68
2023/01/31 14:09:27;;;;;;;1.98;1.30;;;6.80;34.10;;;;;;4935971;29;20189;-69
2023/01/31 14:11:58;;;;;;;1.90;1.30;;;6.90;33.60;;;;;;4935318;29;20761;-69
2023/01/31 14:14:36;;;;;;;1.80;1.10;;;6.30;35.00;;;;;;4935782;29;20190;-69
2023/01/31 14:17:11;;;;;;;1.75;1.10;;;6.30;34.90;;;;;;4933832;29;20270;-70
2023/01/31 14:19:42;;;;;;;1.80;1.10;;;6.10;36.20;;;;;;4935430;29;20198;-70
2023/01/31 14:22:16;;;;;;;1.80;1.10;;;6.40;35.60;;;;;;4934105;29;20250;-71
2023/01/31 14:27:17;;;;;;;1.90;1.30;;;6.40;35.70;;;;;;4933682;29;20231;-70
2023/01/31 14:29:45;;;;;;;1.80;1.10;;;6.70;35.10;;;;;;4935611;29;20184;-70
2023/01/31 14:32:30;;;;;;;1.80;1.10;;;7.50;32.90;;;;;;4935301;29;20653;-70
2023/01/31 14:34:56;;;;;;;1.80;1.10;;;7.10;33.40;;;;;;4935610;29;20259;-70
2023/01/31 14:37:41;;;;;;;1.80;1.10;;;6.90;33.60;;;;;;4934786;29;20219;-70
2023/01/31 14:40:27;;;;;;;1.80;1.20;;;6.50;34.10;;;;;;4934567;29;20190;-70
2023/01/31 14:43:02;;;;;;;1.90;1.20;;;6.50;34.70;;;;;;4915913;29;20572;-70
2023/01/31 14:45:46;;;;;;;2.25;1.40;;;6.60;33.60;;;;;;4916584;29;20153;-70
2023/01/31 14:48:45;;;;;;;1.80;1.08;;;6.80;33.50;;;;;;4924247;29;20191;-71
2023/01/31 14:51:23;;;;;;;1.73;1.00;;;7.20;33.00;;;;;;4924719;29;20577;-70
2023/01/31 14:54:16;;;;;;;2.85;1.73;;;6.90;33.90;;;;;;4915959;29;20583;-68
2023/01/31 14:57:07;;;;;;;1.80;1.10;;;6.60;34.20;;;;;;4916088;29;20213;-68
2023/01/31 14:59:59;;;;;;;1.98;1.23;;;6.30;35.40;;;;;;4929234;29;20267;-72
2023/01/31 15:02:31;;;;;;;2.00;1.20;;;6.80;34.10;;;;;;4934815;29;20195;-71
2023/01/31 15:04:56;;;;;;;1.90;1.20;;;6.80;34.30;;;;;;4933627;29;20184;-70
2023/01/31 15:07:22;;;;;;;1.80;1.10;;;7.20;33.60;;;;;;4934700;29;20191;-70
2023/01/31 15:09:49;;;;;;;1.97;1.23;;;7.50;32.70;;;;;;4934952;29;20172;-70
2023/01/31 15:12:53;;;;;;;1.90;1.10;;;7.40;33.10;;;;;;4934496;29;20458;-69
2023/01/31 15:15:33;;;;;;;1.95;1.27;;;7.50;32.80;;;;;;4933216;29;20183;-70
2023/01/31 15:18:03;;;;;;;3.10;2.08;;;7.50;32.70;;;;;;4934435;29;20203;-68
2023/01/31 15:20:51;;;;;;;2.10;1.38;;;7.70;31.60;;;;;;4934419;29;20179;-67
2023/01/31 15:23:22;;;;;;;1.90;1.10;;;6.60;34.80;;;;;;4934659;29;20563;-67
2023/01/31 15:25:49;;;;;;;1.90;1.25;;;6.70;34.90;;;;;;4933205;29;20558;-70
2023/01/31 15:28:24;;;;;;;1.90;1.20;;;6.80;34.10;;;;;;4934194;29;20196;-70
2023/01/31 15:30:53;;;;;;;1.98;1.30;;;6.80;34.50;;;;;;4935728;29;20175;-70
2023/01/31 15:33:28;;;;;;;1.80;1.10;;;7.10;33.50;;;;;;4934843;29;20180;-70
2023/01/31 15:36:14;;;;;;;3.67;1.80;;;7.20;32.90;;;;;;4934284;29;20742;-70
2023/01/31 15:38:52;;;;;;;3.45;1.52;;;6.90;33.70;;;;;;4915837;29;20172;-71
2023/01/31 15:41:45;;;;;;;1.80;1.10;;;7.00;33.40;;;;;;4915745;29;20240;-71
2023/01/31 15:44:22;;;;;;;1.85;1.10;;;6.90;34.10;;;;;;4916442;29;20199;-70
2023/01/31 15:46:54;;;;;;;1.83;1.10;;;7.30;33.20;;;;;;4926340;29;20187;-70
2023/01/31 15:49:21;;;;;;;9.07;3.05;;;7.50;32.40;;;;;;4934541;29;20176;-70
2023/01/31 15:52:03;;;;;;;1.80;1.20;;;7.00;32.70;;;;;;4934330;29;20247;-69
2023/01/31 15:54:29;;;;;;;1.90;1.20;;;7.20;33.00;;;;;;4932815;29;20726;-69